Time;durP1;ratioP1;P1;durP2;ratioP2;P2;SDS_P1;SDS_P2;PMS_P1;PMS_P2;Temp;Humidity;BMP_temperature;BMP_pressure;BME280_temperature;BME280_humidity;BME280_pressure;Samples;Min_cycle;Max_cycle;Signal;HPM_P1;HPM_P2
2022/09/06 00:03:40;;;;;;;8.32;4.20;;;;;;;;;;10129096;28;20136;-66
2022/09/06 00:08:34;;;;;;;6.63;3.70;;;;;;;;;;10129076;28;20140;-66
2022/09/06 00:13:30;;;;;;;4.47;3.13;;;;;;;;;;10128350;28;20059;-66
2022/09/06 00:18:24;;;;;;;4.05;3.58;;;;;;;;;;10125638;28;20069;-66
2022/09/06 00:23:17;;;;;;;5.85;2.65;;;;;;;;;;10134022;28;20053;-65
2022/09/06 00:28:11;;;;;;;4.13;2.60;;;;;;;;;;10137805;28;20083;-66
2022/09/06 00:33:06;;;;;;;5.70;2.92;;;;;;;;;;10138521;28;20399;-66
2022/09/06 00:38:00;;;;;;;10.45;3.53;;;;;;;;;;10135404;28;20102;-65
2022/09/06 00:42:55;;;;;;;15.20;2.95;;;;;;;;;;10146032;28;20503;-66
2022/09/06 00:47:49;;;;;;;7.65;2.83;;;;;;;;;;10127078;28;20059;-66
2022/09/06 00:52:46;;;;;;;4.93;3.10;;;;;;;;;;10138811;28;20075;-66
2022/09/06 00:57:40;;;;;;;6.03;3.30;;;;;;;;;;10138325;28;20048;-66
2022/09/06 01:02:35;;;;;;;6.80;3.33;;;;;;;;;;10142490;28;20498;-66
2022/09/06 01:07:55;;;;;;;6.25;2.70;;;;;;;;;;10137861;28;20092;-66
2022/09/06 01:13:08;;;;;;;3.90;3.13;;;;;;;;;;10134509;28;20073;-66
2022/09/06 01:18:35;;;;;;;5.90;3.10;;;;;;;;;;10110098;28;20060;-66
2022/09/06 01:23:54;;;;;;;3.28;2.83;;;;;;;;;;10133409;28;20140;-66
2022/09/06 01:28:50;;;;;;;5.03;3.10;;;;;;;;;;10117466;28;20145;-66
2022/09/06 01:34:04;;;;;;;6.18;2.83;;;;;;;;;;10142137;28;20127;-65
2022/09/06 01:38:58;;;;;;;4.80;3.10;;;;;;;;;;10125446;28;20092;-66
2022/09/06 01:43:53;;;;;;;6.72;3.38;;;;;;;;;;10140400;28;20118;-65
2022/09/06 01:48:56;;;;;;;6.72;2.95;;;;;;;;;;10128091;28;20060;-65
2022/09/06 01:54:08;;;;;;;5.43;3.28;;;;;;;;;;10123169;28;20068;-66
2022/09/06 01:59:44;;;;;;;5.53;2.55;;;;;;;;;;10129711;28;20052;-66
2022/09/06 02:04:57;;;;;;;9.57;3.60;;;;;;;;;;10144143;28;20062;-66
2022/09/06 02:10:04;;;;;;;4.78;3.45;;;;;;;;;;10124345;28;20423;-66
2022/09/06 02:15:02;;;;;;;7.80;3.00;;;;;;;;;;10124657;28;20114;-65
2022/09/06 02:20:03;;;;;;;2.70;2.40;;;;;;;;;;10115360;28;20045;-66
2022/09/06 02:24:58;;;;;;;10.45;3.00;;;;;;;;;;10116625;28;20068;-66
2022/09/06 02:29:53;;;;;;;6.47;2.80;;;;;;;;;;10110285;28;20526;-66
2022/09/06 02:34:49;;;;;;;6.10;3.13;;;;;;;;;;10140669;28;20063;-65
2022/09/06 02:39:45;;;;;;;5.57;2.60;;;;;;;;;;10142515;28;20070;-66
2022/09/06 02:44:40;;;;;;;5.90;2.63;;;;;;;;;;10136151;28;20076;-65
2022/09/06 02:49:33;;;;;;;3.58;2.50;;;;;;;;;;10126848;28;20049;-66
2022/09/06 02:54:27;;;;;;;3.58;2.97;;;;;;;;;;10118122;28;20053;-66
2022/09/06 02:59:20;;;;;;;9.80;3.75;;;;;;;;;;10135238;28;20135;-66
2022/09/06 03:04:15;;;;;;;8.82;4.07;;;;;;;;;;10133009;28;20083;-65
2022/09/06 03:09:09;;;;;;;3.13;2.83;;;;;;;;;;10142864;28;20049;-66
2022/09/06 03:14:04;;;;;;;7.20;3.45;;;;;;;;;;10130061;28;20045;-65
2022/09/06 03:18:58;;;;;;;7.43;3.47;;;;;;;;;;10144161;28;20110;-66
2022/09/06 03:23:53;;;;;;;9.43;4.05;;;;;;;;;;10118146;28;20492;-65
2022/09/06 03:28:49;;;;;;;7.07;2.97;;;;;;;;;;10129779;28;20063;-65
2022/09/06 03:33:42;;;;;;;5.28;3.25;;;;;;;;;;10126733;28;20102;-65
2022/09/06 03:38:36;;;;;;;8.10;3.50;;;;;;;;;;10136693;28;20061;-65
2022/09/06 03:43:31;;;;;;;8.07;3.65;;;;;;;;;;10145060;28;20060;-66
2022/09/06 03:48:27;;;;;;;17.52;5.75;;;;;;;;;;10143741;28;20110;-65
2022/09/06 03:53:21;;;;;;;5.50;3.50;;;;;;;;;;10131552;28;20053;-65
2022/09/06 03:58:17;;;;;;;5.90;3.13;;;;;;;;;;10149015;28;20049;-66
2022/09/06 04:03:11;;;;;;;9.52;3.40;;;;;;;;;;10134440;28;20044;-65
2022/09/06 04:08:05;;;;;;;5.93;2.83;;;;;;;;;;10126979;28;20543;-65
2022/09/06 04:13:00;;;;;;;5.70;4.95;;;;;;;;;;10134529;28;20045;-65
2022/09/06 04:17:54;;;;;;;17.08;7.78;;;;;;;;;;10139784;28;20467;-67
2022/09/06 04:22:48;;;;;;;7.65;6.45;;;;;;;;;;10146665;28;20052;-66
2022/09/06 04:27:42;;;;;;;13.20;6.85;;;;;;;;;;10117061;28;20404;-65
2022/09/06 04:32:36;;;;;;;10.32;5.93;;;;;;;;;;10142364;28;20128;-66
2022/09/06 04:37:29;;;;;;;5.65;5.15;;;;;;;;;;10134306;28;20098;-65
2022/09/06 04:42:23;;;;;;;8.63;5.97;;;;;;;;;;10109625;28;20483;-66
2022/09/06 04:47:18;;;;;;;9.35;7.38;;;;;;;;;;10116630;28;20483;-65
2022/09/06 04:52:12;;;;;;;10.25;7.75;;;;;;;;;;10134881;28;20137;-66
2022/09/06 04:57:06;;;;;;;9.27;8.20;;;;;;;;;;10129117;28;20041;-65
2022/09/06 05:02:01;;;;;;;8.98;6.95;;;;;;;;;;10125407;28;20056;-65
2022/09/06 05:07:01;;;;;;;8.85;7.55;;;;;;;;;;10117580;28;20051;-64
2022/09/06 05:11:56;;;;;;;9.95;6.97;;;;;;;;;;10113188;28;20495;-65
2022/09/06 05:16:50;;;;;;;11.90;7.18;;;;;;;;;;10115873;28;20098;-65
2022/09/06 05:21:44;;;;;;;12.70;7.35;;;;;;;;;;10111614;28;20132;-66
2022/09/06 05:26:38;;;;;;;7.90;6.78;;;;;;;;;;10115689;28;20045;-64
2022/09/06 05:31:33;;;;;;;15.18;7.93;;;;;;;;;;10115307;28;20064;-64
2022/09/06 05:36:29;;;;;;;11.07;6.80;;;;;;;;;;10124358;28;20124;-62
2022/09/06 05:41:23;;;;;;;6.30;5.70;;;;;;;;;;10132409;28;20135;-63
2022/09/06 05:46:17;;;;;;;14.93;5.85;;;;;;;;;;10145682;28;20049;-63
2022/09/06 05:51:12;;;;;;;9.15;7.07;;;;;;;;;;10131908;28;20098;-63
2022/09/06 05:56:05;;;;;;;9.93;6.72;;;;;;;;;;10121230;28;20601;-63
2022/09/06 06:01:17;;;;;;;9.73;7.03;;;;;;;;;;10133940;28;20451;-63
2022/09/06 06:06:11;;;;;;;7.43;6.70;;;;;;;;;;10130679;28;20095;-64
2022/09/06 06:11:06;;;;;;;9.13;7.00;;;;;;;;;;10125062;28;20129;-64
2022/09/06 06:16:02;;;;;;;13.73;7.25;;;;;;;;;;10133954;28;20055;-64
2022/09/06 06:21:21;;;;;;;10.52;6.40;;;;;;;;;;10123226;28;20106;-63
2022/09/06 06:26:16;;;;;;;13.23;7.80;;;;;;;;;;10105686;28;20063;-64
2022/09/06 06:31:11;;;;;;;15.40;8.50;;;;;;;;;;10113592;28;20102;-63
2022/09/06 06:36:13;;;;;;;17.15;7.10;;;;;;;;;;10109538;28;20119;-64
2022/09/06 06:41:09;;;;;;;12.93;6.55;;;;;;;;;;10111208;28;20170;-65
2022/09/06 06:46:06;;;;;;;14.57;5.32;;;;;;;;;;10123856;28;20049;-63
2022/09/06 06:51:01;;;;;;;34.00;6.13;;;;;;;;;;10119947;28;20056;-64
2022/09/06 06:55:54;;;;;;;14.80;4.80;;;;;;;;;;10108250;28;20670;-63
2022/09/06 07:00:48;;;;;;;11.88;4.88;;;;;;;;;;10121370;28;20053;-63
2022/09/06 07:05:44;;;;;;;24.85;4.88;;;;;;;;;;10111754;28;20132;-64
2022/09/06 07:11:03;;;;;;;16.37;3.30;;;;;;;;;;10116244;28;20052;-63
2022/09/06 07:16:18;;;;;;;16.42;4.43;;;;;;;;;;10117544;28;20287;-63
2022/09/06 07:21:19;;;;;;;9.68;4.05;;;;;;;;;;10118999;28;20057;-64
2022/09/06 07:26:32;;;;;;;9.15;3.00;;;;;;;;;;10108516;28;20056;-64
2022/09/06 07:31:31;;;;;;;6.43;2.60;;;;;;;;;;10116234;28;20060;-64
2022/09/06 07:36:47;;;;;;;11.13;2.60;;;;;;;;;;10109389;28;20296;-64
2022/09/06 07:41:44;;;;;;;4.10;2.08;;;;;;;;;;10115339;28;20053;-64
2022/09/06 07:46:41;;;;;;;3.78;2.30;;;;;;;;;;10114927;28;20040;-62
2022/09/06 07:51:40;;;;;;;8.23;2.40;;;;;;;;;;10113720;28;20045;-64
2022/09/06 07:56:38;;;;;;;8.43;2.90;;;;;;;;;;10099814;28;20098;-64
2022/09/06 08:01:38;;;;;;;8.60;2.65;;;;;;;;;;10038801;28;20053;-64
2022/09/06 08:06:36;;;;;;;10.93;2.78;;;;;;;;;;10030526;28;20050;-64
2022/09/06 08:11:54;;;;;;;5.65;2.20;;;;;;;;;;10030993;28;20527;-60
2022/09/06 08:16:52;;;;;;;5.78;2.80;;;;;;;;;;10022905;28;20408;-63
2022/09/06 08:21:50;;;;;;;5.32;2.13;;;;;;;;;;10033955;28;20571;-62
2022/09/06 08:26:49;;;;;;;5.13;2.22;;;;;;;;;;10040291;28;20145;-63
2022/09/06 08:31:47;;;;;;;7.30;2.03;;;;;;;;;;10043294;28;20053;-63
2022/09/06 08:36:44;;;;;;;;;;;;;;;;;;10018272;28;20101;-63
2022/09/06 08:41:59;;;;;;;5.80;1.50;;;;;;;;;;10047703;28;19921;-63
2022/09/06 08:46:58;;;;;;;2.45;1.20;;;;;;;;;;10009336;28;20405;-64
2022/09/06 08:52:05;;;;;;;6.32;2.03;;;;;;;;;;10037773;28;20145;-64
2022/09/06 08:57:02;;;;;;;16.85;3.38;;;;;;;;;;10044285;28;20052;-64
2022/09/06 09:02:09;;;;;;;8.00;1.40;;;;;;;;;;10032921;28;20504;-64
2022/09/06 09:07:28;;;;;;;6.05;1.80;;;;;;;;;;10034070;28;20128;-65
2022/09/06 09:12:29;;;;;;;4.75;1.60;;;;;;;;;;10025885;28;20578;-67
2022/09/06 09:17:29;;;;;;;4.93;1.60;;;;;;;;;;10035304;28;20057;-65
2022/09/06 09:22:24;;;;;;;8.73;1.92;;;;;;;;;;10024531;28;20153;-65
2022/09/06 09:27:24;;;;;;;10.07;1.95;;;;;;;;;;10034700;28;20046;-66
2022/09/06 09:32:52;;;;;;;9.13;1.75;;;;;;;;;;9984068;28;20084;-66
2022/09/06 09:38:20;;;;;;;6.72;2.08;;;;;;;;;;9963981;28;20074;-64
2022/09/06 09:43:19;;;;;;;7.55;2.00;;;;;;;;;;9982561;28;20086;-64
2022/09/06 09:48:25;;;;;;;8.18;2.38;;;;;;;;;;9980906;28;20536;-66
2022/09/06 09:53:21;;;;;;;6.93;2.50;;;;;;;;;;9983524;28;20100;-63
2022/09/06 09:58:34;;;;;;;6.45;1.92;;;;;;;;;;9985079;28;20509;-63
2022/09/06 10:03:30;;;;;;;7.30;2.65;;;;;;;;;;9996470;28;20050;-64
2022/09/06 10:08:24;;;;;;;7.45;2.03;;;;;;;;;;10003387;28;20054;-63
2022/09/06 10:13:20;;;;;;;7.47;1.80;;;;;;;;;;9991274;28;20077;-64
2022/09/06 10:18:43;;;;;;;6.63;2.40;;;;;;;;;;10007655;28;20501;-64
2022/09/06 10:23:47;;;;;;;5.43;2.00;;;;;;;;;;9999765;28;20053;-64
2022/09/06 10:29:11;;;;;;;5.53;2.10;;;;;;;;;;10011683;28;20063;-64
2022/09/06 10:34:49;;;;;;;5.40;2.10;;;;;;;;;;10050773;28;20052;-64
2022/09/06 10:39:45;;;;;;;5.22;1.80;;;;;;;;;;10029625;28;20056;-65
2022/09/06 10:44:48;;;;;;;10.00;1.98;;;;;;;;;;10051539;28;20471;-63
2022/09/06 10:49:53;;;;;;;8.70;2.72;;;;;;;;;;10057759;28;20483;-65
2022/09/06 10:54:46;;;;;;;10.45;2.25;;;;;;;;;;10057883;28;20060;-66
2022/09/06 10:59:52;;;;;;;8.10;2.58;;;;;;;;;;10049464;28;20045;-65
2022/09/06 11:04:49;;;;;;;6.95;2.78;;;;;;;;;;10036780;28;20053;-65
2022/09/06 11:10:16;;;;;;;11.90;2.22;;;;;;;;;;10055187;28;20061;-65
2022/09/06 11:15:13;;;;;;;4.93;1.70;;;;;;;;;;10061827;28;20137;-65
2022/09/06 11:20:11;;;;;;;6.78;1.85;;;;;;;;;;10054754;28;20050;-66
2022/09/06 11:25:38;;;;;;;9.30;2.47;;;;;;;;;;10055139;28;20049;-66
2022/09/06 11:30:32;;;;;;;7.10;2.80;;;;;;;;;;10046039;28;20097;-66
2022/09/06 11:35:48;;;;;;;4.28;1.60;;;;;;;;;;10037001;28;20052;-66
2022/09/06 11:41:02;;;;;;;2.25;1.30;;;;;;;;;;10046117;28;20183;-67
2022/09/06 11:45:59;;;;;;;5.13;1.45;;;;;;;;;;10037348;28;20504;-67
2022/09/06 11:50:52;;;;;;;6.30;1.60;;;;;;;;;;10055937;28;20128;-66
2022/09/06 11:55:48;;;;;;;2.03;1.33;;;;;;;;;;10048105;28;20061;-67
2022/09/06 12:00:43;;;;;;;7.45;2.08;;;;;;;;;;10033362;28;20081;-67
2022/09/06 12:06:13;;;;;;;6.00;1.70;;;;;;;;;;10049712;28;20050;-67
2022/09/06 12:11:44;;;;;;;4.80;1.83;;;;;;;;;;10028186;28;20099;-67
2022/09/06 12:16:56;;;;;;;7.38;1.60;;;;;;;;;;10055395;28;20064;-67
2022/09/06 12:21:51;;;;;;;8.15;1.85;;;;;;;;;;10038135;28;20104;-66
2022/09/06 12:26:46;;;;;;;;;;;;;;;;;;10037694;28;20050;-67
2022/09/06 12:31:56;;;;;;;8.88;3.67;;;;;;;;;;10051006;28;19924;-67
2022/09/06 12:37:06;;;;;;;;;;;;;;;;;;10042740;28;20817;-67
2022/09/06 12:42:06;;;;;;;5.32;1.67;;;;;;;;;;10050617;28;19921;-66
2022/09/06 12:47:30;;;;;;;5.45;1.67;;;;;;;;;;10049817;28;20088;-66
2022/09/06 12:52:24;;;;;;;3.88;1.25;;;;;;;;;;10040930;28;20057;-66
2022/09/06 12:57:19;;;;;;;4.00;1.58;;;;;;;;;;10041748;28;20068;-66
2022/09/06 13:02:16;;;;;;;7.25;2.15;;;;;;;;;;10059262;28;20095;-66
2022/09/06 13:07:13;;;;;;;6.63;1.80;;;;;;;;;;10037783;28;20053;-66
2022/09/06 13:12:30;;;;;;;7.05;1.80;;;;;;;;;;10034143;28;20077;-66
2022/09/06 13:17:27;;;;;;;8.15;2.92;;;;;;;;;;10025693;28;20057;-66
2022/09/06 13:23:05;;;;;;;6.63;2.20;;;;;;;;;;10035167;28;20077;-66
2022/09/06 13:28:01;;;;;;;7.07;1.70;;;;;;;;;;10028260;28;20490;-66
2022/09/06 13:32:56;;;;;;;8.77;1.92;;;;;;;;;;10034031;28;20061;-65
2022/09/06 13:37:50;;;;;;;4.15;2.03;;;;;;;;;;10043544;28;20054;-65
2022/09/06 13:42:44;;;;;;;10.68;1.90;;;;;;;;;;10044561;28;20038;-64
2022/09/06 13:47:38;;;;;;;5.85;2.00;;;;;;;;;;10055645;28;20041;-64
2022/09/06 13:52:32;;;;;;;5.38;2.28;;;;;;;;;;10046912;28;20052;-64
2022/09/06 13:57:27;;;;;;;6.50;1.77;;;;;;;;;;10036065;28;20046;-63
2022/09/06 14:02:20;;;;;;;5.85;2.00;;;;;;;;;;10042911;28;20053;-65
2022/09/06 14:07:16;;;;;;;7.55;2.25;;;;;;;;;;10047234;28;20121;-64
2022/09/06 14:12:12;;;;;;;5.10;2.13;;;;;;;;;;10047180;28;20489;-64
2022/09/06 14:17:06;;;;;;;9.18;2.10;;;;;;;;;;10039873;28;20065;-66
2022/09/06 14:22:01;;;;;;;9.27;2.55;;;;;;;;;;10032791;28;20053;-68
2022/09/06 14:26:54;;;;;;;6.00;3.20;;;;;;;;;;10031623;28;20535;-65
2022/09/06 14:31:49;;;;;;;7.32;2.42;;;;;;;;;;10034424;28;20093;-66
2022/09/06 14:36:44;;;;;;;13.80;2.13;;;;;;;;;;10029686;28;20054;-66
2022/09/06 14:41:38;;;;;;;4.65;2.38;;;;;;;;;;10039312;28;20045;-66
2022/09/06 14:46:33;;;;;;;4.40;2.25;;;;;;;;;;10034135;28;20052;-66
2022/09/06 14:51:29;;;;;;;8.43;2.47;;;;;;;;;;10041907;28;20133;-66
2022/09/06 14:56:23;;;;;;;7.40;2.25;;;;;;;;;;10034080;28;20524;-65
2022/09/06 15:01:22;;;;;;;6.38;2.83;;;;;;;;;;10029967;28;20049;-64
2022/09/06 15:06:17;;;;;;;8.05;2.50;;;;;;;;;;10027129;28;20100;-65
2022/09/06 15:11:12;;;;;;;3.87;2.40;;;;;;;;;;10030650;28;20149;-65
2022/09/06 15:16:08;;;;;;;11.20;1.98;;;;;;;;;;10032427;28;20054;-71
2022/09/06 15:21:13;;;;;;;;;;;;;;;;;;10031231;28;20570;-71
2022/09/06 15:26:08;;;;;;;7.15;2.38;;;;;;;;;;10024864;28;20439;-72
2022/09/06 15:31:02;;;;;;;12.63;2.63;;;;;;;;;;10032453;28;20066;-69
2022/09/06 15:35:56;;;;;;;6.05;2.60;;;;;;;;;;10037287;28;20073;-69
2022/09/06 15:40:51;;;;;;;4.45;2.55;;;;;;;;;;10028107;28;20054;-71
2022/09/06 15:45:55;;;;;;;8.35;2.08;;;;;;;;;;10027086;28;20046;-70
2022/09/06 15:50:50;;;;;;;4.78;2.92;;;;;;;;;;10038023;28;20390;-71
2022/09/06 15:55:56;;;;;;;7.70;2.78;;;;;;;;;;10038688;28;20067;-68
2022/09/06 16:01:16;;;;;;;8.63;3.00;;;;;;;;;;10037439;28;20527;-80
2022/09/06 16:06:30;;;;;;;9.32;2.15;;;;;;;;;;10032373;28;20058;-69
2022/09/06 16:11:24;;;;;;;6.90;2.40;;;;;;;;;;10038450;28;20064;-68
2022/09/06 16:16:18;;;;;;;11.25;3.13;;;;;;;;;;10023420;28;20057;-67
2022/09/06 16:21:19;;;;;;;6.85;2.55;;;;;;;;;;10045414;28;20140;-67
2022/09/06 16:26:12;;;;;;;6.00;1.95;;;;;;;;;;10045014;28;20107;-68
2022/09/06 16:31:10;;;;;;;6.80;2.20;;;;;;;;;;10040361;28;20380;-67
2022/09/06 16:36:06;;;;;;;7.28;2.00;;;;;;;;;;10041085;28;20057;-67
2022/09/06 16:41:00;;;;;;;6.10;2.78;;;;;;;;;;10047141;28;20060;-69
2022/09/06 16:46:14;;;;;;;4.45;1.98;;;;;;;;;;10037484;28;20504;-67
2022/09/06 16:51:14;;;;;;;5.85;3.40;;;;;;;;;;10047934;28;20554;-67
2022/09/06 16:56:11;;;;;;;7.40;2.53;;;;;;;;;;10053541;28;20520;-67
2022/09/06 17:01:07;;;;;;;8.73;3.58;;;;;;;;;;10059745;28;20049;-67
2022/09/06 17:06:01;;;;;;;8.35;2.42;;;;;;;;;;10064957;28;20148;-67
2022/09/06 17:10:55;;;;;;;5.43;3.00;;;;;;;;;;10067678;28;20061;-67
2022/09/06 17:21:06;;;;;;;7.85;3.67;;;;;;;;;;10041238;28;20133;-67
2022/09/06 17:26:00;;;;;;;5.78;2.67;;;;;;;;;;10054591;28;20037;-67
2022/09/06 17:30:53;;;;;;;7.57;2.83;;;;;;;;;;10056562;28;20062;-67
2022/09/06 17:35:48;;;;;;;7.43;3.13;;;;;;;;;;10059196;28;20060;-67
2022/09/06 17:40:44;;;;;;;7.45;2.83;;;;;;;;;;10063310;28;20049;-67
2022/09/06 17:45:41;;;;;;;;;;;;;;;;;;10061347;28;20448;-67
2022/09/06 17:50:34;;;;;;;12.77;10.00;;;;;;;;;;10050099;28;19922;-67
2022/09/06 17:55:27;;;;;;;8.82;4.13;;;;;;;;;;10048289;28;20044;-67
2022/09/06 18:00:23;;;;;;;10.77;3.42;;;;;;;;;;10061718;28;20444;-67
2022/09/06 18:05:18;;;;;;;5.87;2.67;;;;;;;;;;10052682;28;20054;-68
2022/09/06 18:10:13;;;;;;;5.22;2.30;;;;;;;;;;10046468;28;20530;-69
2022/09/06 18:15:11;;;;;;;9.65;2.75;;;;;;;;;;10062161;28;20049;-68
2022/09/06 18:20:09;;;;;;;14.18;2.97;;;;;;;;;;10046329;28;20050;-68
2022/09/06 18:25:04;;;;;;;3.83;2.65;;;;;;;;;;10051053;28;20112;-68
2022/09/06 18:29:58;;;;;;;3.95;2.53;;;;;;;;;;10052824;28;20088;-67
2022/09/06 18:34:52;;;;;;;4.85;2.60;;;;;;;;;;10021812;28;20054;-67
2022/09/06 18:39:46;;;;;;;11.57;3.38;;;;;;;;;;10042621;28;20404;-67
2022/09/06 18:44:42;;;;;;;9.20;2.97;;;;;;;;;;10041615;28;20073;-67
2022/09/06 18:49:35;;;;;;;10.27;2.92;;;;;;;;;;10044202;28;20075;-67
2022/09/06 18:54:36;;;;;;;6.03;3.08;;;;;;;;;;10051045;28;20080;-67
2022/09/06 18:59:30;;;;;;;7.13;3.17;;;;;;;;;;10046641;28;20084;-66
2022/09/06 19:04:23;;;;;;;7.63;2.97;;;;;;;;;;10058682;28;20045;-67
2022/09/06 19:09:17;;;;;;;11.50;3.28;;;;;;;;;;10050517;28;20132;-68
2022/09/06 19:14:13;;;;;;;12.82;4.25;;;;;;;;;;10053170;28;20480;-67
2022/09/06 19:19:10;;;;;;;5.72;3.13;;;;;;;;;;10051545;28;20080;-67
2022/09/06 19:24:06;;;;;;;7.28;3.85;;;;;;;;;;10033330;28;20053;-69
2022/09/06 19:29:01;;;;;;;10.27;3.80;;;;;;;;;;10059023;28;20057;-68
2022/09/06 19:33:55;;;;;;;10.98;5.25;;;;;;;;;;10051120;28;20056;-68
2022/09/06 19:38:58;;;;;;;9.23;3.65;;;;;;;;;;10036910;28;20056;-68
2022/09/06 19:43:56;;;;;;;5.80;3.60;;;;;;;;;;10048251;28;20049;-68
2022/09/06 19:48:52;;;;;;;6.63;3.47;;;;;;;;;;10049162;28;20083;-68
2022/09/06 19:53:53;;;;;;;7.60;3.22;;;;;;;;;;10032142;28;20057;-68
2022/09/06 19:58:52;;;;;;;12.32;3.38;;;;;;;;;;10048099;28;20048;-68
2022/09/06 20:03:47;;;;;;;5.70;3.30;;;;;;;;;;10042690;28;20041;-67
2022/09/06 20:08:41;;;;;;;8.15;3.72;;;;;;;;;;10051015;28;20068;-69
2022/09/06 20:13:36;;;;;;;7.30;3.55;;;;;;;;;;10026988;28;20041;-67
2022/09/06 20:18:30;;;;;;;10.55;3.90;;;;;;;;;;10020943;28;20038;-70
2022/09/06 20:23:24;;;;;;;8.32;4.22;;;;;;;;;;10028685;28;20049;-62
2022/09/06 20:28:18;;;;;;;10.05;4.78;;;;;;;;;;10035728;28;20156;-62
2022/09/06 20:33:14;;;;;;;6.38;4.32;;;;;;;;;;10029297;28;20072;-63
2022/09/06 20:38:10;;;;;;;14.02;7.15;;;;;;;;;;10033405;28;20072;-63
2022/09/06 20:43:05;;;;;;;12.93;6.00;;;;;;;;;;10034313;28;20129;-64
2022/09/06 20:47:59;;;;;;;13.68;5.57;;;;;;;;;;10029471;28;20061;-62
2022/09/06 20:52:54;;;;;;;5.70;4.15;;;;;;;;;;10029543;28;20050;-65
2022/09/06 20:57:48;;;;;;;10.05;4.95;;;;;;;;;;10027886;28;20454;-64
2022/09/06 21:02:42;;;;;;;10.68;5.88;;;;;;;;;;10029755;28;20042;-63
2022/09/06 21:07:36;;;;;;;11.55;4.25;;;;;;;;;;10030894;28;20052;-63
2022/09/06 21:12:30;;;;;;;5.47;4.32;;;;;;;;;;10022580;28;20151;-64
2022/09/06 21:17:23;;;;;;;10.23;4.65;;;;;;;;;;10010651;28;20046;-64
2022/09/06 21:22:17;;;;;;;9.98;3.65;;;;;;;;;;10020836;28;20419;-63
2022/09/06 21:27:11;;;;;;;6.38;3.55;;;;;;;;;;10023276;28;20054;-65
2022/09/06 21:32:06;;;;;;;8.50;3.30;;;;;;;;;;10021505;28;20436;-65
2022/09/06 21:37:00;;;;;;;8.25;4.20;;;;;;;;;;10029833;28;20053;-63
2022/09/06 21:41:55;;;;;;;6.53;3.22;;;;;;;;;;10030627;28;20057;-64
2022/09/06 21:46:49;;;;;;;6.68;3.55;;;;;;;;;;10026380;28;20080;-64
2022/09/06 21:51:43;;;;;;;11.65;3.67;;;;;;;;;;10038219;28;20420;-66
2022/09/06 21:56:38;;;;;;;9.20;4.55;;;;;;;;;;10045081;28;20077;-64
2022/09/06 22:01:33;;;;;;;8.82;4.40;;;;;;;;;;10029866;28;20064;-64
2022/09/06 22:06:29;;;;;;;7.53;4.53;;;;;;;;;;10038319;28;20045;-65
2022/09/06 22:11:26;;;;;;;6.85;4.22;;;;;;;;;;10040138;28;20083;-65
2022/09/06 22:16:21;;;;;;;8.25;5.00;;;;;;;;;;10019448;28;20088;-64
2022/09/06 22:21:18;;;;;;;9.95;4.65;;;;;;;;;;10020103;28;20462;-64
2022/09/06 22:26:16;;;;;;;7.45;4.70;;;;;;;;;;10034154;28;20080;-64
2022/09/06 22:31:16;;;;;;;16.00;6.18;;;;;;;;;;10036605;28;20531;-65
2022/09/06 22:36:11;;;;;;;13.20;4.32;;;;;;;;;;10033731;28;20053;-67
2022/09/06 22:41:10;;;;;;;6.07;2.88;;;;;;;;;;10034090;28;20045;-67
2022/09/06 22:46:05;;;;;;;9.15;3.50;;;;;;;;;;10039165;28;20050;-67
2022/09/06 22:51:00;;;;;;;5.97;3.42;;;;;;;;;;10042727;28;20057;-67
2022/09/06 22:55:54;;;;;;;6.82;3.15;;;;;;;;;;10040820;28;20045;-67
2022/09/06 23:00:49;;;;;;;6.97;2.70;;;;;;;;;;10043179;28;20072;-67
2022/09/06 23:05:44;;;;;;;4.65;2.42;;;;;;;;;;10036740;28;20042;-67
2022/09/06 23:10:40;;;;;;;3.65;2.97;;;;;;;;;;10039054;28;20096;-67
2022/09/06 23:15:39;;;;;;;6.30;3.33;;;;;;;;;;10038595;28;20042;-67
2022/09/06 23:20:36;;;;;;;6.68;3.00;;;;;;;;;;10031195;28;20401;-66
2022/09/06 23:25:30;;;;;;;6.07;3.03;;;;;;;;;;10034773;28;20056;-67
2022/09/06 23:30:24;;;;;;;8.77;3.58;;;;;;;;;;10036381;28;20065;-67
2022/09/06 23:35:18;;;;;;;7.60;3.63;;;;;;;;;;10043953;28;20456;-67
2022/09/06 23:40:13;;;;;;;4.93;2.80;;;;;;;;;;10041312;28;20065;-67
2022/09/06 23:45:10;;;;;;;8.40;2.92;;;;;;;;;;10039285;28;20120;-66
2022/09/06 23:50:07;;;;;;;7.82;2.95;;;;;;;;;;10034630;28;20049;-65
2022/09/06 23:55:01;;;;;;;7.25;2.75;;;;;;;;;;10040905;28;20053;-66
2022/09/06 23:59:55;;;;;;;6.60;3.33;;;;;;;;;;10044988;28;20064;-66
